createdAt,value
2019-04-26T00:04:50.492Z,9.00
2019-04-26T00:07:18.973Z,9.00
2019-04-26T00:09:47.886Z,9.00
2019-04-26T00:12:23.735Z,9.00
2019-04-26T00:15:00.025Z,9.00
2019-04-26T00:17:36.155Z,9.00
2019-04-26T00:20:07.282Z,9.00
2019-04-26T00:22:45.679Z,9.00
2019-04-26T00:25:14.455Z,9.00
2019-04-26T00:27:42.988Z,9.00
2019-04-26T00:30:13.090Z,9.00
2019-04-26T00:32:41.547Z,9.00
2019-04-26T00:35:10.183Z,9.10
2019-04-26T00:37:38.605Z,9.00
2019-04-26T00:40:07.111Z,9.00
2019-04-26T00:42:35.673Z,9.00
2019-04-26T00:45:04.552Z,9.00
2019-04-26T00:47:33.840Z,9.10
2019-04-26T00:50:02.868Z,9.10
2019-04-26T00:52:32.058Z,9.10
2019-04-26T00:55:01.269Z,9.00
2019-04-26T00:57:31.428Z,9.00
2019-04-26T01:00:00.596Z,9.00
2019-04-26T01:02:33.347Z,9.00
2019-04-26T01:05:01.763Z,9.00
2019-04-26T01:07:30.228Z,9.00
2019-04-26T01:09:58.797Z,9.00
2019-04-26T01:12:27.195Z,9.00
2019-04-26T01:14:55.645Z,9.00
2019-04-26T01:17:24.599Z,9.00
2019-04-26T01:19:54.701Z,9.00
2019-04-26T01:22:26.244Z,9.00
2019-04-26T01:24:55.777Z,9.00
2019-04-26T01:27:27.755Z,9.00
2019-04-26T01:29:59.283Z,8.90
2019-04-26T01:32:29.045Z,8.90
2019-04-26T01:34:57.466Z,8.90
2019-04-26T01:37:26.839Z,8.90
2019-04-26T01:39:59.991Z,8.90
2019-04-26T01:42:33.030Z,8.90
2019-04-26T01:45:11.761Z,8.90
2019-04-26T01:47:41.239Z,8.90
2019-04-26T01:50:11.902Z,8.90
2019-04-26T01:52:42.854Z,8.90
2019-04-26T01:55:11.738Z,8.90
2019-04-26T01:57:41.738Z,8.80
2019-04-26T02:00:15.373Z,8.80
2019-04-26T02:03:00.454Z,8.80
2019-04-26T02:05:29.906Z,8.80
2019-04-26T02:07:58.636Z,8.80
2019-04-26T02:10:28.562Z,8.80
2019-04-26T02:12:58.204Z,8.80
2019-04-26T02:15:29.703Z,8.80
2019-04-26T02:17:59.613Z,8.80
2019-04-26T02:20:59.752Z,8.80
2019-04-26T02:23:47.899Z,8.80
2019-04-26T02:26:33.175Z,8.70
2019-04-26T02:29:13.219Z,8.70
2019-04-26T02:31:43.367Z,8.70
2019-04-26T02:34:12.939Z,8.70
2019-04-26T02:36:56.334Z,8.70
2019-04-26T02:39:20.309Z,8.60
2019-04-26T02:41:51.384Z,8.60
2019-04-26T02:44:23.052Z,8.60
2019-04-26T02:47:05.097Z,8.60
2019-04-26T02:49:38.604Z,8.60
2019-04-26T02:52:29.730Z,8.50
2019-04-26T02:55:30.971Z,8.40
2019-04-26T02:58:20.824Z,8.40
2019-04-26T03:00:50.675Z,8.30
2019-04-26T03:03:22.211Z,8.20
2019-04-26T03:05:52.390Z,8.20
2019-04-26T03:08:24.182Z,8.10
2019-04-26T03:11:17.113Z,8.10
2019-04-26T03:13:48.182Z,8.10
2019-04-26T03:16:24.325Z,8.10
2019-04-26T03:18:59.907Z,8.00
2019-04-26T03:21:40.470Z,8.00
2019-04-26T03:24:21.093Z,8.00
2019-04-26T03:27:01.862Z,8.00
2019-04-26T03:29:41.243Z,8.00
2019-04-26T03:32:33.889Z,8.00
2019-04-26T03:35:39.806Z,7.90
2019-04-26T03:38:24.898Z,7.90
2019-04-26T03:41:18.150Z,7.90
2019-04-26T03:43:55.733Z,7.90
2019-04-26T03:46:29.915Z,7.90
2019-04-26T03:49:28.613Z,7.90
2019-04-26T03:52:37.963Z,7.90
2019-04-26T03:55:29.688Z,7.90
2019-04-26T03:58:07.173Z,7.90
2019-04-26T04:00:48.434Z,7.90
2019-04-26T04:10:19.687Z,7.80
2019-04-26T04:13:18.702Z,7.80
2019-04-26T04:15:50.426Z,7.80
2019-04-26T04:18:25.041Z,7.70
2019-04-26T04:21:14.490Z,7.80
2019-04-26T04:23:52.121Z,7.80
2019-04-26T04:26:23.699Z,7.80
2019-04-26T04:29:02.705Z,7.80
2019-04-26T04:31:49.342Z,7.80
2019-04-26T04:34:43.981Z,7.80
2019-04-26T04:37:15.935Z,7.80
2019-04-26T04:43:01.269Z,7.70
2019-04-26T04:46:09.237Z,7.70
2019-04-26T04:52:07.769Z,7.70
2019-04-26T04:55:07.982Z,7.60
2019-04-26T04:58:03.229Z,7.60
2019-04-26T05:00:54.269Z,7.60
2019-04-26T05:03:45.061Z,7.60
2019-04-26T05:06:37.121Z,7.60
2019-04-26T05:09:10.423Z,7.60
2019-04-26T05:11:51.860Z,7.60
2019-04-26T05:14:48.048Z,7.60
2019-04-26T05:17:41.822Z,7.60
2019-04-26T05:48:22.190Z,7.70
2019-04-26T05:51:09.924Z,7.60
2019-04-26T05:54:15.566Z,7.70
2019-04-26T05:57:00.290Z,7.70
2019-04-26T05:59:31.782Z,7.70
2019-04-26T06:02:07.800Z,7.70
2019-04-26T06:04:57.144Z,7.60
2019-04-26T06:08:03.598Z,7.70
2019-04-26T06:10:53.047Z,7.60
2019-04-26T06:13:26.881Z,7.70
2019-04-26T06:16:24.231Z,7.70
2019-04-26T06:19:20.889Z,7.70
2019-04-26T06:22:02.173Z,7.70
2019-04-26T06:24:33.921Z,7.70
2019-04-26T06:27:18.949Z,7.70
2019-04-26T06:29:50.441Z,7.70
2019-04-26T06:32:25.365Z,7.70
2019-04-26T06:34:59.588Z,7.70
2019-04-26T06:38:18.747Z,7.70
2019-04-26T06:43:42.749Z,7.70
2019-04-26T06:46:24.621Z,7.70
2019-04-26T06:49:03.451Z,7.70
2019-04-26T06:51:37.868Z,7.70
2019-04-26T06:54:22.197Z,7.80
2019-04-26T06:57:13.526Z,7.80
2019-04-26T07:00:10.209Z,7.80
2019-04-26T07:03:16.136Z,7.90
2019-04-26T07:05:47.622Z,7.90
2019-04-26T07:08:56.678Z,7.90
2019-04-26T07:11:20.949Z,7.90
2019-04-26T07:14:04.762Z,7.90
2019-04-26T07:16:39.188Z,8.00
2019-04-26T07:19:48.003Z,8.10
2019-04-26T07:22:35.167Z,8.10
2019-04-26T07:25:37.971Z,8.20
2019-04-26T07:28:33.976Z,8.20
2019-04-26T07:31:15.015Z,8.20
2019-04-26T07:33:52.890Z,8.20
2019-04-26T07:36:35.630Z,8.30
2019-04-26T07:39:20.422Z,8.30
2019-04-26T07:42:31.855Z,8.30
2019-04-26T07:45:05.561Z,8.30
2019-04-26T07:48:19.601Z,8.30
2019-04-26T07:51:16.553Z,8.40
2019-04-26T07:54:08.914Z,8.40
2019-04-26T07:56:58.413Z,8.40
2019-04-26T08:00:04.878Z,8.40
2019-04-26T08:02:43.401Z,8.50
2019-04-26T08:05:38.528Z,8.50
2019-04-26T08:08:10.864Z,8.50
2019-04-26T08:10:42.302Z,8.50
2019-04-26T08:13:19.283Z,8.50
2019-04-26T08:15:58.129Z,8.50
2019-04-26T08:18:33.927Z,8.50
2019-04-26T08:21:32.015Z,8.60
2019-04-26T08:24:05.203Z,8.60
2019-04-26T08:26:37.985Z,8.30
2019-04-26T08:29:08.509Z,8.20
2019-04-26T08:31:40.070Z,8.30
2019-04-26T08:34:14.420Z,8.30
2019-04-26T08:36:47.178Z,8.40
2019-04-26T08:39:24.576Z,8.40
2019-04-26T08:41:53.450Z,8.30
2019-04-26T08:44:35.605Z,8.40
2019-04-26T08:47:26.327Z,8.40
2019-04-26T08:49:55.302Z,8.50
2019-04-26T08:52:28.045Z,8.50
2019-04-26T08:55:07.299Z,8.50
2019-04-26T08:57:38.741Z,8.60
2019-04-26T09:00:19.751Z,8.60
2019-04-26T09:02:52.676Z,8.50
2019-04-26T09:05:45.561Z,8.60
2019-04-26T09:08:17.107Z,8.70
2019-04-26T09:10:48.563Z,8.70
2019-04-26T09:16:15.114Z,8.90
2019-04-26T09:18:52.477Z,9.00
2019-04-26T09:21:17.454Z,9.20
2019-04-26T09:23:54.711Z,9.30
2019-04-26T09:26:33.568Z,9.40
2019-04-26T09:29:08.410Z,9.30
2019-04-26T09:32:03.974Z,9.20
2019-04-26T09:34:41.281Z,9.10
2019-04-26T09:37:29.305Z,9.00
2019-04-26T09:40:09.368Z,9.00
2019-04-26T09:42:32.238Z,9.10
2019-04-26T09:45:02.317Z,9.10
2019-04-26T09:47:35.368Z,9.10
2019-04-26T09:50:17.060Z,9.10
2019-04-26T09:52:58.218Z,9.00
2019-04-26T09:55:35.117Z,9.10
2019-04-26T09:57:58.166Z,9.10
2019-04-26T10:00:28.434Z,9.10
2019-04-26T10:02:56.947Z,9.00
2019-04-26T10:05:25.528Z,9.10
2019-04-26T10:07:54.374Z,9.10
2019-04-26T10:10:24.589Z,9.20
2019-04-26T10:13:00.418Z,9.20
2019-04-26T10:15:35.112Z,9.20
2019-04-26T10:18:04.442Z,9.30
2019-04-26T10:20:34.954Z,9.30
2019-04-26T10:23:04.425Z,9.40
2019-04-26T10:25:34.327Z,9.40
2019-04-26T10:28:02.778Z,9.40
2019-04-26T10:30:31.208Z,9.50
2019-04-26T10:33:19.001Z,9.50
2019-04-26T10:35:47.437Z,9.60
2019-04-26T10:38:19.243Z,9.80
2019-04-26T10:40:46.118Z,9.90
2019-04-26T10:43:14.748Z,10.20
2019-04-26T10:45:45.945Z,10.30
2019-04-26T10:51:03.236Z,10.50
2019-04-26T10:53:32.199Z,10.40
2019-04-26T10:56:08.226Z,10.50
2019-04-26T10:58:44.042Z,10.50
2019-04-26T11:01:14.990Z,10.50
2019-04-26T11:03:43.503Z,10.70
2019-04-26T11:06:11.932Z,10.80
2019-04-26T11:08:40.484Z,10.90
2019-04-26T11:11:09.899Z,10.80
2019-04-26T11:13:57.881Z,10.60
2019-04-26T11:16:26.332Z,10.50
2019-04-26T11:18:57.155Z,10.30
2019-04-26T11:21:25.041Z,10.20
2019-04-26T11:23:53.473Z,10.20
2019-04-26T11:26:21.906Z,10.30
2019-04-26T11:28:51.419Z,10.40
2019-04-26T11:31:23.439Z,10.50
2019-04-26T11:33:50.788Z,10.40
2019-04-26T11:36:19.313Z,10.30
2019-04-26T11:38:47.854Z,10.30
2019-04-26T11:41:16.339Z,10.40
2019-04-26T11:43:44.756Z,10.40
2019-04-26T11:46:13.178Z,10.50
2019-04-26T11:48:41.635Z,10.70
2019-04-26T11:51:10.076Z,10.70
2019-04-26T11:53:40.586Z,10.70
2019-04-26T11:56:08.810Z,10.80
2019-04-26T11:58:37.284Z,10.90
2019-04-26T12:01:07.598Z,10.80
2019-04-26T12:03:36.082Z,10.90
2019-04-26T12:06:06.598Z,11.00
2019-04-26T12:11:34.191Z,11.20
2019-04-26T12:13:59.403Z,11.30
2019-04-26T12:16:30.635Z,11.10
2019-04-26T12:18:59.120Z,11.20
2019-04-26T12:21:30.472Z,11.20
2019-04-26T12:23:57.725Z,11.10
2019-04-26T12:26:26.190Z,10.90
2019-04-26T12:28:54.673Z,10.60
2019-04-26T12:31:23.267Z,10.60
2019-04-26T12:33:51.816Z,10.80
2019-04-26T12:36:20.259Z,10.80
2019-04-26T12:38:48.774Z,10.90
2019-04-26T12:41:22.135Z,11.10
2019-04-26T12:43:47.541Z,11.30
2019-04-26T12:46:31.842Z,11.30
2019-04-26T12:48:59.750Z,11.50
2019-04-26T12:51:28.195Z,11.50
2019-04-26T12:53:56.645Z,11.70
2019-04-26T12:56:26.544Z,11.80
2019-04-26T12:58:55.221Z,11.80
2019-04-26T13:01:26.580Z,11.70
2019-04-26T13:04:04.957Z,11.80
2019-04-26T13:06:56.703Z,11.80
2019-04-26T13:09:35.642Z,11.90
2019-04-26T13:12:06.006Z,11.90
2019-04-26T13:14:48.443Z,11.90
2019-04-26T13:17:18.502Z,11.90
2019-04-26T13:19:49.516Z,12.00
2019-04-26T13:22:17.123Z,12.30
2019-04-26T13:24:45.637Z,12.40
2019-04-26T13:27:14.125Z,12.60
2019-04-26T13:29:42.830Z,12.90
2019-04-26T13:32:11.285Z,13.20
2019-04-26T13:34:39.720Z,13.20
2019-04-26T13:37:08.281Z,12.80
2019-04-26T13:39:36.907Z,12.60
2019-04-26T13:42:09.450Z,12.70
2019-04-26T13:44:52.588Z,12.90
2019-04-26T13:47:25.397Z,13.10
2019-04-26T13:50:10.829Z,13.20
2019-04-26T13:52:39.335Z,13.00
2019-04-26T13:55:07.891Z,13.20
2019-04-26T13:57:36.344Z,13.20
2019-04-26T14:00:11.369Z,13.10
2019-04-26T14:02:37.388Z,13.10
2019-04-26T14:05:06.484Z,13.20
2019-04-26T14:07:34.911Z,13.30
2019-04-26T14:10:04.323Z,13.20
2019-04-26T14:12:34.236Z,13.20
2019-04-26T14:15:04.469Z,13.10
2019-04-26T14:17:32.832Z,13.00
2019-04-26T14:20:01.717Z,13.10
2019-04-26T14:22:31.832Z,13.20
2019-04-26T14:25:01.888Z,13.20
2019-04-26T14:27:34.991Z,13.20
2019-04-26T14:30:06.488Z,13.20
2019-04-26T14:32:35.275Z,13.30
2019-04-26T14:35:04.398Z,13.30
2019-04-26T14:37:32.835Z,13.20
2019-04-26T14:40:15.938Z,13.00
2019-04-26T14:42:35.159Z,13.00
2019-04-26T14:45:02.175Z,12.90
2019-04-26T14:47:32.019Z,12.80
2019-04-26T14:50:13.016Z,13.00
2019-04-26T14:52:30.769Z,13.00
2019-04-26T14:54:59.224Z,13.00
2019-04-26T14:57:31.413Z,13.10
2019-04-26T14:59:59.399Z,13.20
2019-04-26T15:02:35.439Z,13.20
2019-04-26T15:05:22.372Z,13.30
2019-04-26T15:07:53.602Z,13.40
2019-04-26T15:10:22.794Z,13.50
2019-04-26T15:12:56.698Z,13.70
2019-04-26T15:15:21.355Z,13.80
2019-04-26T15:17:54.475Z,13.80
2019-04-26T15:20:20.832Z,13.80
2019-04-26T15:22:50.181Z,13.60
2019-04-26T15:25:18.624Z,13.50
2019-04-26T15:27:47.032Z,13.60
2019-04-26T15:30:15.613Z,13.50
2019-04-26T15:32:44.047Z,13.60
2019-04-26T15:35:17.402Z,13.50
2019-04-26T15:37:42.594Z,13.50
2019-04-26T15:40:15.873Z,13.50
2019-04-26T15:43:00.880Z,13.50
2019-04-26T15:45:25.283Z,13.60
2019-04-26T15:47:58.535Z,13.60
2019-04-26T15:50:28.684Z,13.70
2019-04-26T15:52:57.217Z,13.60
2019-04-26T15:55:25.696Z,13.60
2019-04-26T15:57:54.137Z,13.70
2019-04-26T16:00:22.662Z,13.60
2019-04-26T16:02:52.818Z,13.50
2019-04-26T16:05:24.322Z,13.50
2019-04-26T16:07:52.891Z,13.60
2019-04-26T16:10:25.604Z,13.70
2019-04-26T16:12:52.375Z,13.60
2019-04-26T16:15:20.999Z,13.50
2019-04-26T16:17:49.841Z,13.50
2019-04-26T16:20:24.275Z,13.30
2019-04-26T16:22:53.394Z,13.00
2019-04-26T16:25:22.926Z,12.60
2019-04-26T16:27:53.200Z,12.60
2019-04-26T16:30:24.305Z,12.40
2019-04-26T16:33:15.712Z,12.40
2019-04-26T16:35:44.204Z,12.50
2019-04-26T16:41:21.915Z,12.70
2019-04-26T16:43:53.139Z,12.70
2019-04-26T16:46:20.757Z,12.70
2019-04-26T16:48:49.544Z,12.70
2019-04-26T16:51:40.092Z,12.70
2019-04-26T16:54:11.152Z,12.80
2019-04-26T16:56:43.695Z,12.70
2019-04-26T16:59:14.249Z,12.70
2019-04-26T17:01:43.558Z,12.70
2019-04-26T17:04:12.324Z,12.70
2019-04-26T17:06:44.806Z,12.50
2019-04-26T17:09:14.123Z,12.40
2019-04-26T17:11:43.392Z,12.30
2019-04-26T17:14:13.249Z,12.40
2019-04-26T17:16:44.349Z,12.20
2019-04-26T17:19:13.777Z,12.20
2019-04-26T17:21:43.998Z,12.20
2019-04-26T17:24:14.743Z,12.20
2019-04-26T17:26:45.857Z,12.20
2019-04-26T17:29:14.294Z,12.20
2019-04-26T17:31:43.119Z,12.10
2019-04-26T17:34:12.669Z,12.00
2019-04-26T17:36:41.332Z,11.80
2019-04-26T17:39:16.788Z,11.80
2019-04-26T17:41:45.116Z,11.70
2019-04-26T17:44:13.311Z,11.60
2019-04-26T17:47:02.148Z,11.50
2019-04-26T17:49:34.340Z,11.50
2019-04-26T17:52:01.950Z,11.50
2019-04-26T17:54:45.655Z,11.60
2019-04-26T17:57:04.473Z,11.80
2019-04-26T17:59:34.642Z,11.90
2019-04-26T18:02:01.415Z,12.00
2019-04-26T18:04:36.090Z,12.00
2019-04-26T18:07:03.768Z,12.00
2019-04-26T18:09:43.022Z,12.00
2019-04-26T18:12:03.465Z,12.00
2019-04-26T18:14:32.130Z,12.00
2019-04-26T18:17:04.381Z,12.00
2019-04-26T18:19:39.840Z,12.00
2019-04-26T18:22:15.900Z,11.90
2019-04-26T18:24:44.395Z,11.90
2019-04-26T18:27:14.660Z,11.80
2019-04-26T18:29:43.692Z,11.70
2019-04-26T18:32:12.972Z,11.60
2019-04-26T18:34:42.987Z,11.50
2019-04-26T18:37:13.372Z,11.40
2019-04-26T18:40:04.468Z,11.40
2019-04-26T18:42:31.389Z,11.30
2019-04-26T18:44:59.801Z,11.30
2019-04-26T18:47:32.703Z,11.20
2019-04-26T18:50:01.126Z,11.20
2019-04-26T18:52:32.960Z,11.00
2019-04-26T18:55:03.898Z,11.00
2019-04-26T18:57:33.530Z,11.00
2019-04-26T19:00:02.065Z,11.00
2019-04-26T19:02:30.483Z,10.90
2019-04-26T19:04:58.904Z,10.80
2019-04-26T19:07:32.418Z,10.80
2019-04-26T19:10:00.670Z,10.70
2019-04-26T19:12:27.819Z,10.70
2019-04-26T19:15:07.612Z,10.60
2019-04-26T19:17:38.133Z,10.60
2019-04-26T19:20:11.774Z,10.60
2019-04-26T19:23:02.679Z,10.60
2019-04-26T19:25:34.486Z,10.60
2019-04-26T19:28:04.342Z,10.40
2019-04-26T19:33:21.594Z,10.40
2019-04-26T19:35:50.202Z,10.30
2019-04-26T19:38:18.621Z,10.20
2019-04-26T19:41:06.588Z,10.20
2019-04-26T19:43:35.344Z,10.20
2019-04-26T19:46:06.190Z,10.20
2019-04-26T19:48:39.125Z,10.10
2019-04-26T19:51:23.761Z,10.00
2019-04-26T19:54:08.440Z,10.00
2019-04-26T19:56:38.527Z,10.00
2019-04-26T19:59:06.949Z,9.90
2019-04-26T20:01:35.408Z,9.90
2019-04-26T20:04:03.838Z,9.90
2019-04-26T20:06:34.012Z,9.80
2019-04-26T20:09:02.589Z,9.80
2019-04-26T20:11:31.635Z,9.70
2019-04-26T20:14:01.150Z,9.60
2019-04-26T20:16:30.244Z,9.60
2019-04-26T20:18:58.672Z,9.70
2019-04-26T20:21:27.087Z,9.60
2019-04-26T20:23:55.533Z,9.60
2019-04-26T20:26:24.038Z,9.70
2019-04-26T20:28:52.452Z,9.60
2019-04-26T20:34:15.278Z,9.50
2019-04-26T20:36:47.653Z,9.30
2019-04-26T20:39:16.530Z,9.20
2019-04-26T20:41:43.534Z,9.00
2019-04-26T20:44:28.361Z,8.80
2019-04-26T20:46:45.160Z,8.70
2019-04-26T20:49:13.632Z,8.50
2019-04-26T20:51:46.031Z,8.40
2019-04-26T20:54:16.341Z,8.20
2019-04-26T20:56:46.123Z,8.20
2019-04-26T20:59:16.749Z,8.00
2019-04-26T21:01:45.391Z,7.90
2019-04-26T21:04:38.188Z,7.90
2019-04-26T21:07:02.585Z,7.70
2019-04-26T21:09:32.320Z,7.60
2019-04-26T21:12:01.887Z,7.50
2019-04-26T21:14:31.608Z,7.50
2019-04-26T21:17:00.173Z,7.50
2019-04-26T21:19:28.746Z,7.40
2019-04-26T21:21:57.199Z,7.40
2019-04-26T21:24:27.394Z,7.40
2019-04-26T21:27:01.647Z,7.40
2019-04-26T21:29:43.401Z,7.30
2019-04-26T21:32:37.304Z,7.30
2019-04-26T21:35:07.606Z,7.20
2019-04-26T21:37:53.952Z,7.20
2019-04-26T21:40:27.333Z,7.10
2019-04-26T21:42:59.641Z,7.10
2019-04-26T21:45:30.740Z,7.20
2019-04-26T21:47:56.091Z,7.20
2019-04-26T21:53:42.178Z,7.30
2019-04-26T21:56:11.581Z,7.20
2019-04-26T21:58:40.267Z,7.20
2019-04-26T22:01:11.053Z,7.20
2019-04-26T22:03:47.365Z,7.20
2019-04-26T22:06:11.304Z,7.20
2019-04-26T22:09:05.091Z,7.10
2019-04-26T22:11:33.975Z,7.10
2019-04-26T22:14:04.042Z,7.00
2019-04-26T22:17:09.758Z,7.00
2019-04-26T22:19:45.779Z,6.90
2019-04-26T22:22:18.541Z,6.90
2019-04-26T22:24:48.616Z,6.90
2019-04-26T22:27:21.326Z,6.90
2019-04-26T22:29:47.705Z,6.90
2019-04-26T22:32:19.129Z,6.90
2019-04-26T22:34:47.882Z,6.80
2019-04-26T22:37:29.059Z,6.80
2019-04-26T22:40:19.550Z,6.70
2019-04-26T22:42:46.662Z,6.70
2019-04-26T22:45:23.506Z,6.70
2019-04-26T22:47:56.626Z,6.70
2019-04-26T22:50:25.207Z,6.70
2019-04-26T22:52:54.852Z,6.80
2019-04-26T22:55:27.236Z,6.80
2019-04-26T22:57:53.580Z,6.80
2019-04-26T23:00:25.560Z,6.80
2019-04-26T23:02:58.077Z,6.80
2019-04-26T23:05:24.108Z,6.80
2019-04-26T23:07:54.679Z,6.80
2019-04-26T23:10:38.229Z,6.80
2019-04-26T23:13:08.373Z,6.90
2019-04-26T23:15:44.552Z,6.90
2019-04-26T23:18:15.941Z,6.90
2019-04-26T23:20:49.127Z,6.80
2019-04-26T23:23:17.568Z,6.80
2019-04-26T23:25:46.007Z,6.80
2019-04-26T23:28:14.455Z,6.70
2019-04-26T23:30:44.283Z,6.70
2019-04-26T23:33:33.808Z,6.70
2019-04-26T23:36:03.256Z,6.70
2019-04-26T23:38:36.177Z,6.70
2019-04-26T23:41:07.007Z,6.70
2019-04-26T23:43:32.526Z,6.80
2019-04-26T23:46:01.007Z,6.80
2019-04-26T23:48:29.448Z,6.80
2019-04-26T23:50:59.997Z,6.80
2019-04-26T23:53:28.105Z,6.80
2019-04-26T23:55:56.511Z,6.90
2019-04-26T23:58:36.001Z,6.90
